Polonia International Airport
WIMM : now visible

Airfield :











YOU CAN JOIN US ON...

 
LOGIN :

Register | Disclaimer

   EN    FR    IT 

 









Legend :    VFR   Marginal VFR   IFR   Intensive IFR   Very Intensive IFR
Visi :
Ceiling :
>= 8 km
>= 3000ft
5 to 8 km
1000 to 3000 ft
1500m to 5 km
500 to 1000 ft
800 to 1500m
200 to 500 ft
< 800m
< 200 ft
Symbols :   Thunderstorms  Fog  Heavy snow  Heavy precipitations  Wind > 20 kt






- Airport Elevation : 114 ft
- IATA code : MES


WIMM - Polonia International

CURRENT METAR :
  • 171800Z 25003KT 2000 BR SCT018 25/24 Q1010 NOSIG

EXPIRED METARs :
  • 171730Z 26004KT 3000 BR SCT018 25/24 Q1011 NOSIG
  • 171700Z 26003KT 2500 BR SCT018 25/24 Q1011 NOSIG
  • 171630Z 24003KT 2000 BR SCT018 25/25 Q1011 NOSIG
  • 171600Z 25004KT 2500 BR SCT018 25/25 Q1012 NOSIG
  • 171530Z 25002KT 3000 BR SCT018 25/25 Q1012 NOSIG

TAF TAF WIMM
Valid from the 17 at 18:00 until the 18 at 18:00 UTC


171700Z 1718/1818 25004KT 3000 BR SCT018
BECMG 1802/1804 33010KT 9000 NSW



MET'MAP, your aeronautical weather chart ! - Copyright ORBIFLY December 2007 - Disclaimer

ORBIFLY MET'MAP TEAM :

Programming & Development : Alexandra Zaïnal
Concept & original design : Baudouin d'Aumeries
Assistance for programming : Marc-Olivier Méhu
Technical & hardware support : Manuel Goepfert

Contact : metmap@orbifly.com




SOURCES & CREDITS :

   NOAA       Earth
Advisory